sensor_id;sensor_type;location;lat;lon;timestamp;temperature;humidity
31677;DHT22;18385;51.572;6.578;2023-04-25T00:01:13;9.80;63.30
31677;DHT22;18385;51.572;6.578;2023-04-25T00:03:39;9.80;63.30
31677;DHT22;18385;51.572;6.578;2023-04-25T00:06:06;9.80;63.30
31677;DHT22;18385;51.572;6.578;2023-04-25T00:08:32;9.80;63.30
31677;DHT22;18385;51.572;6.578;2023-04-25T00:10:58;9.80;63.30
31677;DHT22;18385;51.572;6.578;2023-04-25T00:13:24;9.80;63.30
31677;DHT22;18385;51.572;6.578;2023-04-25T00:15:51;9.80;63.40
31677;DHT22;18385;51.572;6.578;2023-04-25T00:18:21;9.80;63.40
31677;DHT22;18385;51.572;6.578;2023-04-25T00:20:47;9.70;63.40
31677;DHT22;18385;51.572;6.578;2023-04-25T00:23:14;9.70;63.40
31677;DHT22;18385;51.572;6.578;2023-04-25T00:25:44;9.60;63.50
31677;DHT22;18385;51.572;6.578;2023-04-25T00:28:11;9.60;63.60
31677;DHT22;18385;51.572;6.578;2023-04-25T00:30:37;9.60;63.60
31677;DHT22;18385;51.572;6.578;2023-04-25T00:33:03;9.50;63.70
31677;DHT22;18385;51.572;6.578;2023-04-25T00:35:29;9.50;63.80
31677;DHT22;18385;51.572;6.578;2023-04-25T00:37:55;9.50;64.00
31677;DHT22;18385;51.572;6.578;2023-04-25T00:40:21;9.60;64.00
31677;DHT22;18385;51.572;6.578;2023-04-25T00:42:46;9.70;63.90
31677;DHT22;18385;51.572;6.578;2023-04-25T00:45:13;9.70;63.90
31677;DHT22;18385;51.572;6.578;2023-04-25T00:47:42;9.70;63.90
31677;DHT22;18385;51.572;6.578;2023-04-25T00:50:09;9.80;64.00
31677;DHT22;18385;51.572;6.578;2023-04-25T00:52:35;9.90;64.00
31677;DHT22;18385;51.572;6.578;2023-04-25T00:55:01;10.00;63.90
31677;DHT22;18385;51.572;6.578;2023-04-25T00:57:27;10.00;63.80
31677;DHT22;18385;51.572;6.578;2023-04-25T00:59:54;10.10;63.80
31677;DHT22;18385;51.572;6.578;2023-04-25T01:02:20;10.10;63.80
31677;DHT22;18385;51.572;6.578;2023-04-25T01:04:48;10.10;63.70
31677;DHT22;18385;51.572;6.578;2023-04-25T01:07:14;10.20;63.90
31677;DHT22;18385;51.572;6.578;2023-04-25T01:09:41;10.20;63.90
31677;DHT22;18385;51.572;6.578;2023-04-25T01:12:07;10.20;63.80
31677;DHT22;18385;51.572;6.578;2023-04-25T01:14:34;10.20;63.90
31677;DHT22;18385;51.572;6.578;2023-04-25T01:16:59;10.20;64.00
31677;DHT22;18385;51.572;6.578;2023-04-25T01:19:25;10.30;64.00
31677;DHT22;18385;51.572;6.578;2023-04-25T01:21:51;10.20;63.90
31677;DHT22;18385;51.572;6.578;2023-04-25T01:24:18;10.20;63.90
31677;DHT22;18385;51.572;6.578;2023-04-25T01:26:43;10.20;64.00
31677;DHT22;18385;51.572;6.578;2023-04-25T01:29:17;10.20;64.10
31677;DHT22;18385;51.572;6.578;2023-04-25T01:31:43;10.20;64.10
31677;DHT22;18385;51.572;6.578;2023-04-25T01:34:10;10.20;64.20
31677;DHT22;18385;51.572;6.578;2023-04-25T01:36:35;10.20;64.20
31677;DHT22;18385;51.572;6.578;2023-04-25T01:39:01;10.20;64.30
31677;DHT22;18385;51.572;6.578;2023-04-25T01:41:27;10.30;64.30
31677;DHT22;18385;51.572;6.578;2023-04-25T01:43:53;10.30;64.20
31677;DHT22;18385;51.572;6.578;2023-04-25T01:46:19;10.30;64.10
31677;DHT22;18385;51.572;6.578;2023-04-25T01:48:45;10.40;64.10
31677;DHT22;18385;51.572;6.578;2023-04-25T01:51:11;10.30;64.00
31677;DHT22;18385;51.572;6.578;2023-04-25T01:53:38;10.30;64.20
31677;DHT22;18385;51.572;6.578;2023-04-25T01:56:04;10.20;64.20
31677;DHT22;18385;51.572;6.578;2023-04-25T01:58:33;10.20;64.20
31677;DHT22;18385;51.572;6.578;2023-04-25T02:01:02;10.20;64.30
31677;DHT22;18385;51.572;6.578;2023-04-25T02:03:34;10.10;64.50
31677;DHT22;18385;51.572;6.578;2023-04-25T02:06:03;10.00;64.40
31677;DHT22;18385;51.572;6.578;2023-04-25T02:08:30;10.00;64.50
31677;DHT22;18385;51.572;6.578;2023-04-25T02:10:57;9.90;64.60
31677;DHT22;18385;51.572;6.578;2023-04-25T02:13:28;9.90;64.80
31677;DHT22;18385;51.572;6.578;2023-04-25T02:16:12;10.00;65.00
31677;DHT22;18385;51.572;6.578;2023-04-25T02:18:38;10.00;64.90
31677;DHT22;18385;51.572;6.578;2023-04-25T02:21:06;9.90;64.80
31677;DHT22;18385;51.572;6.578;2023-04-25T02:23:32;9.90;64.90
31677;DHT22;18385;51.572;6.578;2023-04-25T02:25:59;9.90;65.00
31677;DHT22;18385;51.572;6.578;2023-04-25T02:28:25;9.90;65.00
31677;DHT22;18385;51.572;6.578;2023-04-25T02:30:52;10.00;65.20
31677;DHT22;18385;51.572;6.578;2023-04-25T02:33:18;10.00;65.20
31677;DHT22;18385;51.572;6.578;2023-04-25T02:35:43;10.00;65.20
31677;DHT22;18385;51.572;6.578;2023-04-25T02:38:09;10.00;65.20
31677;DHT22;18385;51.572;6.578;2023-04-25T02:40:35;10.00;65.20
31677;DHT22;18385;51.572;6.578;2023-04-25T02:43:01;10.00;65.10
31677;DHT22;18385;51.572;6.578;2023-04-25T02:45:26;10.10;65.20
31677;DHT22;18385;51.572;6.578;2023-04-25T02:47:52;10.10;65.20
31677;DHT22;18385;51.572;6.578;2023-04-25T02:50:18;10.10;65.20
31677;DHT22;18385;51.572;6.578;2023-04-25T02:52:44;10.10;65.20
31677;DHT22;18385;51.572;6.578;2023-04-25T02:55:17;10.10;65.20
31677;DHT22;18385;51.572;6.578;2023-04-25T02:57:44;10.00;65.30
31677;DHT22;18385;51.572;6.578;2023-04-25T03:00:13;10.00;65.40
31677;DHT22;18385;51.572;6.578;2023-04-25T03:02:39;10.00;65.40
31677;DHT22;18385;51.572;6.578;2023-04-25T03:05:05;10.00;65.40
31677;DHT22;18385;51.572;6.578;2023-04-25T03:07:32;10.00;65.40
31677;DHT22;18385;51.572;6.578;2023-04-25T03:09:57;10.00;65.50
31677;DHT22;18385;51.572;6.578;2023-04-25T03:12:23;9.90;65.60
31677;DHT22;18385;51.572;6.578;2023-04-25T03:14:49;9.90;65.60
31677;DHT22;18385;51.572;6.578;2023-04-25T03:17:15;9.90;65.60
31677;DHT22;18385;51.572;6.578;2023-04-25T03:19:41;9.90;65.70
31677;DHT22;18385;51.572;6.578;2023-04-25T03:22:07;9.90;65.70
31677;DHT22;18385;51.572;6.578;2023-04-25T03:24:32;9.90;65.80
31677;DHT22;18385;51.572;6.578;2023-04-25T03:26:58;9.90;65.80
31677;DHT22;18385;51.572;6.578;2023-04-25T03:29:24;9.90;65.70
31677;DHT22;18385;51.572;6.578;2023-04-25T03:31:52;9.80;65.70
31677;DHT22;18385;51.572;6.578;2023-04-25T03:34:19;9.80;65.80
31677;DHT22;18385;51.572;6.578;2023-04-25T03:36:45;9.70;65.80
31677;DHT22;18385;51.572;6.578;2023-04-25T03:39:12;9.60;65.90
31677;DHT22;18385;51.572;6.578;2023-04-25T03:41:40;9.50;66.00
31677;DHT22;18385;51.572;6.578;2023-04-25T03:44:11;9.40;66.10
31677;DHT22;18385;51.572;6.578;2023-04-25T03:46:37;9.30;66.20
31677;DHT22;18385;51.572;6.578;2023-04-25T03:49:03;9.20;66.20
31677;DHT22;18385;51.572;6.578;2023-04-25T03:51:48;9.20;66.30
31677;DHT22;18385;51.572;6.578;2023-04-25T03:54:15;9.10;66.40
31677;DHT22;18385;51.572;6.578;2023-04-25T03:57:15;9.00;66.60
31677;DHT22;18385;51.572;6.578;2023-04-25T03:59:42;8.90;66.60
31677;DHT22;18385;51.572;6.578;2023-04-25T04:02:11;8.90;66.70
31677;DHT22;18385;51.572;6.578;2023-04-25T04:04:37;8.80;66.70
31677;DHT22;18385;51.572;6.578;2023-04-25T04:07:03;8.80;66.90
31677;DHT22;18385;51.572;6.578;2023-04-25T04:09:33;8.70;66.90
31677;DHT22;18385;51.572;6.578;2023-04-25T04:12:02;8.70;67.00
31677;DHT22;18385;51.572;6.578;2023-04-25T04:14:30;8.70;67.00
31677;DHT22;18385;51.572;6.578;2023-04-25T04:16:56;8.60;67.00
31677;DHT22;18385;51.572;6.578;2023-04-25T04:19:22;8.60;67.00
31677;DHT22;18385;51.572;6.578;2023-04-25T04:22:08;8.60;67.00
31677;DHT22;18385;51.572;6.578;2023-04-25T04:24:34;8.50;67.50
31677;DHT22;18385;51.572;6.578;2023-04-25T04:27:04;8.40;67.10
31677;DHT22;18385;51.572;6.578;2023-04-25T04:29:39;8.40;67.30
31677;DHT22;18385;51.572;6.578;2023-04-25T04:32:14;8.40;67.40
31677;DHT22;18385;51.572;6.578;2023-04-25T04:34:40;8.40;67.40
31677;DHT22;18385;51.572;6.578;2023-04-25T04:37:07;8.40;67.40
31677;DHT22;18385;51.572;6.578;2023-04-25T04:39:33;8.40;67.40
31677;DHT22;18385;51.572;6.578;2023-04-25T04:42:12;8.50;67.50
31677;DHT22;18385;51.572;6.578;2023-04-25T04:45:04;8.50;67.30
31677;DHT22;18385;51.572;6.578;2023-04-25T04:47:45;8.50;67.30
31677;DHT22;18385;51.572;6.578;2023-04-25T04:50:33;8.50;67.40
31677;DHT22;18385;51.572;6.578;2023-04-25T04:53:16;8.60;67.70
31677;DHT22;18385;51.572;6.578;2023-04-25T04:56:07;8.70;67.60
31677;DHT22;18385;51.572;6.578;2023-04-25T04:58:46;8.70;67.30
31677;DHT22;18385;51.572;6.578;2023-04-25T05:01:33;8.70;67.30
31677;DHT22;18385;51.572;6.578;2023-04-25T05:04:20;8.80;67.40
31677;DHT22;18385;51.572;6.578;2023-04-25T05:07:08;8.90;67.20
31677;DHT22;18385;51.572;6.578;2023-04-25T05:09:46;9.00;67.20
31677;DHT22;18385;51.572;6.578;2023-04-25T05:12:29;9.00;67.10
31677;DHT22;18385;51.572;6.578;2023-04-25T05:15:16;9.10;67.20
31677;DHT22;18385;51.572;6.578;2023-04-25T05:18:07;9.20;67.20
31677;DHT22;18385;51.572;6.578;2023-04-25T05:21:03;9.30;67.00
31677;DHT22;18385;51.572;6.578;2023-04-25T05:23:55;9.30;66.90
31677;DHT22;18385;51.572;6.578;2023-04-25T05:26:44;9.40;67.00
31677;DHT22;18385;51.572;6.578;2023-04-25T05:29:33;9.40;66.90
31677;DHT22;18385;51.572;6.578;2023-04-25T05:32:05;9.50;66.90
31677;DHT22;18385;51.572;6.578;2023-04-25T05:34:31;9.60;66.70
31677;DHT22;18385;51.572;6.578;2023-04-25T05:37:03;9.60;66.70
31677;DHT22;18385;51.572;6.578;2023-04-25T05:39:31;9.70;66.60
31677;DHT22;18385;51.572;6.578;2023-04-25T05:42:10;9.80;66.60
31677;DHT22;18385;51.572;6.578;2023-04-25T05:44:58;9.80;66.50
31677;DHT22;18385;51.572;6.578;2023-04-25T05:47:53;9.90;66.60
31677;DHT22;18385;51.572;6.578;2023-04-25T05:50:41;10.00;67.30
31677;DHT22;18385;51.572;6.578;2023-04-25T05:53:42;10.00;66.50
31677;DHT22;18385;51.572;6.578;2023-04-25T05:56:08;9.90;66.30
31677;DHT22;18385;51.572;6.578;2023-04-25T05:58:34;9.90;66.30
31677;DHT22;18385;51.572;6.578;2023-04-25T06:01:00;9.90;66.20
31677;DHT22;18385;51.572;6.578;2023-04-25T06:03:25;9.90;66.40
31677;DHT22;18385;51.572;6.578;2023-04-25T06:05:51;10.00;66.60
31677;DHT22;18385;51.572;6.578;2023-04-25T06:08:18;10.10;66.60
31677;DHT22;18385;51.572;6.578;2023-04-25T06:10:44;10.10;66.40
31677;DHT22;18385;51.572;6.578;2023-04-25T06:13:10;10.10;66.20
31677;DHT22;18385;51.572;6.578;2023-04-25T06:15:36;10.10;66.20
31677;DHT22;18385;51.572;6.578;2023-04-25T06:18:02;10.00;66.10
31677;DHT22;18385;51.572;6.578;2023-04-25T06:20:28;10.00;66.20
31677;DHT22;18385;51.572;6.578;2023-04-25T06:22:56;9.90;66.10
31677;DHT22;18385;51.572;6.578;2023-04-25T06:25:41;9.80;66.20
31677;DHT22;18385;51.572;6.578;2023-04-25T06:28:07;9.70;66.40
31677;DHT22;18385;51.572;6.578;2023-04-25T06:30:33;9.70;66.60
31677;DHT22;18385;51.572;6.578;2023-04-25T06:33:05;9.80;66.80
31677;DHT22;18385;51.572;6.578;2023-04-25T06:35:31;10.00;67.00
31677;DHT22;18385;51.572;6.578;2023-04-25T06:37:57;10.30;66.90
31677;DHT22;18385;51.572;6.578;2023-04-25T06:40:25;10.60;66.60
31677;DHT22;18385;51.572;6.578;2023-04-25T06:42:50;10.90;66.30
31677;DHT22;18385;51.572;6.578;2023-04-25T06:45:34;11.20;66.20
31677;DHT22;18385;51.572;6.578;2023-04-25T06:48:00;11.40;65.60
31677;DHT22;18385;51.572;6.578;2023-04-25T06:50:27;11.60;65.00
31677;DHT22;18385;51.572;6.578;2023-04-25T06:52:53;11.70;64.80
31677;DHT22;18385;51.572;6.578;2023-04-25T06:55:20;11.60;64.70
31677;DHT22;18385;51.572;6.578;2023-04-25T06:58:14;11.60;64.50
31677;DHT22;18385;51.572;6.578;2023-04-25T07:00:52;11.50;64.50
31677;DHT22;18385;51.572;6.578;2023-04-25T07:03:20;11.60;64.70
31677;DHT22;18385;51.572;6.578;2023-04-25T07:05:46;11.60;64.50
31677;DHT22;18385;51.572;6.578;2023-04-25T07:08:12;11.70;64.60
31677;DHT22;18385;51.572;6.578;2023-04-25T07:10:38;11.70;64.30
31677;DHT22;18385;51.572;6.578;2023-04-25T07:13:04;11.80;64.60
31677;DHT22;18385;51.572;6.578;2023-04-25T07:15:30;12.00;64.70
31677;DHT22;18385;51.572;6.578;2023-04-25T07:17:57;12.10;64.10
31677;DHT22;18385;51.572;6.578;2023-04-25T07:20:22;12.10;63.60
31677;DHT22;18385;51.572;6.578;2023-04-25T07:22:48;12.10;63.80
31677;DHT22;18385;51.572;6.578;2023-04-25T07:25:15;12.10;63.70
31677;DHT22;18385;51.572;6.578;2023-04-25T07:27:41;12.10;63.40
31677;DHT22;18385;51.572;6.578;2023-04-25T07:30:13;12.10;63.40
31677;DHT22;18385;51.572;6.578;2023-04-25T07:32:39;12.10;63.30
31677;DHT22;18385;51.572;6.578;2023-04-25T07:35:05;12.20;63.00
31677;DHT22;18385;51.572;6.578;2023-04-25T07:37:33;12.20;63.10
31677;DHT22;18385;51.572;6.578;2023-04-25T07:40:08;12.30;63.10
31677;DHT22;18385;51.572;6.578;2023-04-25T07:42:35;12.40;62.80
31677;DHT22;18385;51.572;6.578;2023-04-25T07:45:02;12.40;62.70
31677;DHT22;18385;51.572;6.578;2023-04-25T07:47:29;12.50;62.70
31677;DHT22;18385;51.572;6.578;2023-04-25T07:49:54;12.60;62.60
31677;DHT22;18385;51.572;6.578;2023-04-25T07:52:21;12.60;62.30
31677;DHT22;18385;51.572;6.578;2023-04-25T07:54:52;12.60;62.10
31677;DHT22;18385;51.572;6.578;2023-04-25T07:57:23;12.70;62.20
31677;DHT22;18385;51.572;6.578;2023-04-25T07:59:51;12.90;62.30
31677;DHT22;18385;51.572;6.578;2023-04-25T08:02:18;13.00;62.00
31677;DHT22;18385;51.572;6.578;2023-04-25T08:04:44;13.20;61.60
31677;DHT22;18385;51.572;6.578;2023-04-25T08:07:11;13.20;61.10
31677;DHT22;18385;51.572;6.578;2023-04-25T08:09:47;13.00;60.90
31677;DHT22;18385;51.572;6.578;2023-04-25T08:12:21;12.90;61.20
31677;DHT22;18385;51.572;6.578;2023-04-25T08:14:47;12.90;61.10
31677;DHT22;18385;51.572;6.578;2023-04-25T08:17:12;12.90;61.20
31677;DHT22;18385;51.572;6.578;2023-04-25T08:19:40;12.80;61.10
31677;DHT22;18385;51.572;6.578;2023-04-25T08:22:10;12.80;61.00
31677;DHT22;18385;51.572;6.578;2023-04-25T08:24:46;12.80;61.10
31677;DHT22;18385;51.572;6.578;2023-04-25T08:27:12;12.80;60.80
31677;DHT22;18385;51.572;6.578;2023-04-25T08:29:39;12.70;60.70
31677;DHT22;18385;51.572;6.578;2023-04-25T08:32:05;12.80;60.90
31677;DHT22;18385;51.572;6.578;2023-04-25T08:34:33;13.00;60.90
31677;DHT22;18385;51.572;6.578;2023-04-25T08:37:02;13.20;60.20
31677;DHT22;18385;51.572;6.578;2023-04-25T08:39:46;13.20;60.00
31677;DHT22;18385;51.572;6.578;2023-04-25T08:42:21;13.50;60.00
31677;DHT22;18385;51.572;6.578;2023-04-25T08:44:48;13.60;59.70
31677;DHT22;18385;51.572;6.578;2023-04-25T08:47:15;13.80;59.60
31677;DHT22;18385;51.572;6.578;2023-04-25T08:49:46;14.00;59.40
31677;DHT22;18385;51.572;6.578;2023-04-25T08:52:13;14.10;59.00
31677;DHT22;18385;51.572;6.578;2023-04-25T08:54:48;14.10;58.40
31677;DHT22;18385;51.572;6.578;2023-04-25T08:57:17;14.00;58.00
31677;DHT22;18385;51.572;6.578;2023-04-25T08:59:45;14.00;58.20
31677;DHT22;18385;51.572;6.578;2023-04-25T09:02:12;14.10;58.10
31677;DHT22;18385;51.572;6.578;2023-04-25T09:04:43;14.00;57.80
31677;DHT22;18385;51.572;6.578;2023-04-25T09:07:09;14.10;57.90
31677;DHT22;18385;51.572;6.578;2023-04-25T09:09:35;14.00;57.70
31677;DHT22;18385;51.572;6.578;2023-04-25T09:12:01;13.90;57.50
31677;DHT22;18385;51.572;6.578;2023-04-25T09:14:27;13.90;57.50
31677;DHT22;18385;51.572;6.578;2023-04-25T09:17:07;14.00;57.80
31677;DHT22;18385;51.572;6.578;2023-04-25T09:19:47;14.10;57.50
31677;DHT22;18385;51.572;6.578;2023-04-25T09:22:24;14.20;57.20
31677;DHT22;18385;51.572;6.578;2023-04-25T09:24:50;14.10;56.90
31677;DHT22;18385;51.572;6.578;2023-04-25T09:27:19;14.00;56.60
31677;DHT22;18385;51.572;6.578;2023-04-25T09:29:47;14.10;57.10
31677;DHT22;18385;51.572;6.578;2023-04-25T09:32:23;14.30;57.00
31677;DHT22;18385;51.572;6.578;2023-04-25T09:34:54;14.50;56.80
31677;DHT22;18385;51.572;6.578;2023-04-25T09:37:24;14.40;56.00
31677;DHT22;18385;51.572;6.578;2023-04-25T09:40:09;14.30;55.80
31677;DHT22;18385;51.572;6.578;2023-04-25T09:42:49;14.10;55.70
31677;DHT22;18385;51.572;6.578;2023-04-25T09:45:14;13.90;55.80
31677;DHT22;18385;51.572;6.578;2023-04-25T09:47:41;14.10;56.50
31677;DHT22;18385;51.572;6.578;2023-04-25T09:50:14;14.30;55.70
31677;DHT22;18385;51.572;6.578;2023-04-25T09:52:43;14.50;55.50
31677;DHT22;18385;51.572;6.578;2023-04-25T09:55:14;14.80;55.40
31677;DHT22;18385;51.572;6.578;2023-04-25T09:57:44;14.90;55.00
31677;DHT22;18385;51.572;6.578;2023-04-25T10:00:10;14.80;54.50
31677;DHT22;18385;51.572;6.578;2023-04-25T10:02:42;14.80;54.70
31677;DHT22;18385;51.572;6.578;2023-04-25T10:05:22;15.00;54.80
31677;DHT22;18385;51.572;6.578;2023-04-25T10:07:48;15.10;54.60
31677;DHT22;18385;51.572;6.578;2023-04-25T10:10:16;15.20;54.50
31677;DHT22;18385;51.572;6.578;2023-04-25T10:12:42;15.30;54.00
31677;DHT22;18385;51.572;6.578;2023-04-25T10:15:09;15.20;53.80
31677;DHT22;18385;51.572;6.578;2023-04-25T10:17:36;14.90;53.10
31677;DHT22;18385;51.572;6.578;2023-04-25T10:20:02;14.40;53.40
31677;DHT22;18385;51.572;6.578;2023-04-25T10:22:35;14.00;53.80
31677;DHT22;18385;51.572;6.578;2023-04-25T10:25:03;13.70;54.10
31677;DHT22;18385;51.572;6.578;2023-04-25T10:27:30;13.40;54.40
31677;DHT22;18385;51.572;6.578;2023-04-25T10:30:07;13.30;54.70
31677;DHT22;18385;51.572;6.578;2023-04-25T10:32:36;13.20;54.80
31677;DHT22;18385;51.572;6.578;2023-04-25T10:35:15;13.20;54.90
31677;DHT22;18385;51.572;6.578;2023-04-25T10:38:04;13.30;55.10
31677;DHT22;18385;51.572;6.578;2023-04-25T10:40:31;13.60;55.20
31677;DHT22;18385;51.572;6.578;2023-04-25T10:46:17;14.10;54.80
31677;DHT22;18385;51.572;6.578;2023-04-25T10:48:46;14.20;54.40
31677;DHT22;18385;51.572;6.578;2023-04-25T10:56:37;14.20;54.00
31677;DHT22;18385;51.572;6.578;2023-04-25T11:04:04;14.10;54.20
31677;DHT22;18385;51.572;6.578;2023-04-25T11:06:51;14.20;54.30
31677;DHT22;18385;51.572;6.578;2023-04-25T11:09:23;14.20;53.90
31677;DHT22;18385;51.572;6.578;2023-04-25T11:11:55;14.10;53.70
31677;DHT22;18385;51.572;6.578;2023-04-25T11:14:21;13.90;54.60
31677;DHT22;18385;51.572;6.578;2023-04-25T11:16:52;13.60;53.70
31677;DHT22;18385;51.572;6.578;2023-04-25T11:19:20;13.20;53.60
31677;DHT22;18385;51.572;6.578;2023-04-25T11:21:45;12.80;53.60
31677;DHT22;18385;51.572;6.578;2023-04-25T11:24:11;12.40;54.10
31677;DHT22;18385;51.572;6.578;2023-04-25T11:26:37;12.20;54.30
31677;DHT22;18385;51.572;6.578;2023-04-25T11:29:03;12.10;54.80
31677;DHT22;18385;51.572;6.578;2023-04-25T11:31:29;12.20;55.60
31677;DHT22;18385;51.572;6.578;2023-04-25T11:33:58;12.40;56.20
31677;DHT22;18385;51.572;6.578;2023-04-25T11:36:24;12.40;55.30
31677;DHT22;18385;51.572;6.578;2023-04-25T11:38:52;12.40;55.40
31677;DHT22;18385;51.572;6.578;2023-04-25T11:41:19;12.30;55.60
31677;DHT22;18385;51.572;6.578;2023-04-25T11:43:45;12.40;55.80
31677;DHT22;18385;51.572;6.578;2023-04-25T11:46:11;12.50;55.60
31677;DHT22;18385;51.572;6.578;2023-04-25T11:48:38;12.60;55.70
31677;DHT22;18385;51.572;6.578;2023-04-25T11:51:04;12.70;55.50
31677;DHT22;18385;51.572;6.578;2023-04-25T11:53:30;12.90;55.40
31677;DHT22;18385;51.572;6.578;2023-04-25T11:55:55;13.00;55.20
31677;DHT22;18385;51.572;6.578;2023-04-25T11:58:21;13.10;54.90
31677;DHT22;18385;51.572;6.578;2023-04-25T12:00:47;13.30;54.90
31677;DHT22;18385;51.572;6.578;2023-04-25T12:03:13;13.70;55.00
31677;DHT22;18385;51.572;6.578;2023-04-25T12:05:38;14.00;54.80
31677;DHT22;18385;51.572;6.578;2023-04-25T12:10:38;14.90;53.80
31677;DHT22;18385;51.572;6.578;2023-04-25T12:13:19;15.40;53.30
31677;DHT22;18385;51.572;6.578;2023-04-25T12:15:45;15.70;52.60
31677;DHT22;18385;51.572;6.578;2023-04-25T12:18:11;15.60;51.60
31677;DHT22;18385;51.572;6.578;2023-04-25T12:20:37;15.40;51.40
31677;DHT22;18385;51.572;6.578;2023-04-25T12:23:06;15.20;51.20
31677;DHT22;18385;51.572;6.578;2023-04-25T12:25:44;14.80;51.40
31677;DHT22;18385;51.572;6.578;2023-04-25T12:28:20;14.40;51.50
31677;DHT22;18385;51.572;6.578;2023-04-25T12:33:25;14.20;52.20
31677;DHT22;18385;51.572;6.578;2023-04-25T12:35:52;14.30;52.60
31677;DHT22;18385;51.572;6.578;2023-04-25T12:38:25;14.40;52.20
31677;DHT22;18385;51.572;6.578;2023-04-25T12:40:51;14.50;52.10
31677;DHT22;18385;51.572;6.578;2023-04-25T12:43:17;14.70;52.30
31677;DHT22;18385;51.572;6.578;2023-04-25T12:45:44;14.90;52.00
31677;DHT22;18385;51.572;6.578;2023-04-25T12:48:10;14.90;51.80
31677;DHT22;18385;51.572;6.578;2023-04-25T12:50:35;14.90;51.80
31677;DHT22;18385;51.572;6.578;2023-04-25T12:53:01;15.00;51.90
31677;DHT22;18385;51.572;6.578;2023-04-25T12:55:27;15.20;51.40
31677;DHT22;18385;51.572;6.578;2023-04-25T12:57:52;15.20;51.40
31677;DHT22;18385;51.572;6.578;2023-04-25T13:00:18;15.20;50.90
31677;DHT22;18385;51.572;6.578;2023-04-25T13:02:45;15.20;50.90
31677;DHT22;18385;51.572;6.578;2023-04-25T13:05:13;15.30;51.10
31677;DHT22;18385;51.572;6.578;2023-04-25T13:07:39;15.70;51.10
31677;DHT22;18385;51.572;6.578;2023-04-25T13:10:05;16.40;51.70
31677;DHT22;18385;51.572;6.578;2023-04-25T13:12:31;16.60;49.70
31677;DHT22;18385;51.572;6.578;2023-04-25T13:14:57;16.80;49.80
31677;DHT22;18385;51.572;6.578;2023-04-25T13:17:22;16.60;49.20
31677;DHT22;18385;51.572;6.578;2023-04-25T13:19:48;16.70;49.60
31677;DHT22;18385;51.572;6.578;2023-04-25T13:22:13;16.90;49.60
31677;DHT22;18385;51.572;6.578;2023-04-25T13:24:40;17.30;49.90
31677;DHT22;18385;51.572;6.578;2023-04-25T13:27:06;17.40;48.80
31677;DHT22;18385;51.572;6.578;2023-04-25T13:29:32;17.10;47.50
31677;DHT22;18385;51.572;6.578;2023-04-25T13:32:00;16.60;47.30
31677;DHT22;18385;51.572;6.578;2023-04-25T13:34:26;16.10;47.60
31677;DHT22;18385;51.572;6.578;2023-04-25T13:36:52;16.30;49.40
31677;DHT22;18385;51.572;6.578;2023-04-25T13:39:17;17.30;49.60
31677;DHT22;18385;51.572;6.578;2023-04-25T13:41:43;17.90;48.90
31677;DHT22;18385;51.572;6.578;2023-04-25T13:44:09;18.10;47.00
31677;DHT22;18385;51.572;6.578;2023-04-25T13:46:35;18.00;46.70
31677;DHT22;18385;51.572;6.578;2023-04-25T13:49:03;17.90;46.40
31677;DHT22;18385;51.572;6.578;2023-04-25T13:51:29;17.70;45.70
31677;DHT22;18385;51.572;6.578;2023-04-25T13:53:56;17.20;45.80
31677;DHT22;18385;51.572;6.578;2023-04-25T13:56:22;16.70;46.00
31677;DHT22;18385;51.572;6.578;2023-04-25T13:58:52;16.40;46.30
31677;DHT22;18385;51.572;6.578;2023-04-25T14:01:18;16.80;48.00
31677;DHT22;18385;51.572;6.578;2023-04-25T14:03:44;17.30;46.40
31677;DHT22;18385;51.572;6.578;2023-04-25T14:06:10;17.10;45.10
31677;DHT22;18385;51.572;6.578;2023-04-25T14:08:38;16.50;45.00
31677;DHT22;18385;51.572;6.578;2023-04-25T14:11:03;16.00;45.20
31677;DHT22;18385;51.572;6.578;2023-04-25T14:13:29;15.60;45.90
31677;DHT22;18385;51.572;6.578;2023-04-25T14:15:55;15.50;46.40
31677;DHT22;18385;51.572;6.578;2023-04-25T14:18:21;16.80;47.80
31677;DHT22;18385;51.572;6.578;2023-04-25T14:20:46;17.10;45.20
31677;DHT22;18385;51.572;6.578;2023-04-25T14:23:12;17.10;45.40
31677;DHT22;18385;51.572;6.578;2023-04-25T14:25:39;18.10;45.70
31677;DHT22;18385;51.572;6.578;2023-04-25T14:28:05;19.30;45.30
31677;DHT22;18385;51.572;6.578;2023-04-25T14:30:31;19.90;43.90
31677;DHT22;18385;51.572;6.578;2023-04-25T14:32:57;20.40;42.70
31677;DHT22;18385;51.572;6.578;2023-04-25T14:35:23;20.40;42.80
31677;DHT22;18385;51.572;6.578;2023-04-25T14:37:48;20.80;41.90
31677;DHT22;18385;51.572;6.578;2023-04-25T14:40:14;20.90;41.00
31677;DHT22;18385;51.572;6.578;2023-04-25T14:42:41;21.00;40.30
31677;DHT22;18385;51.572;6.578;2023-04-25T14:45:08;21.50;40.90
31677;DHT22;18385;51.572;6.578;2023-04-25T14:47:35;22.00;39.50
31677;DHT22;18385;51.572;6.578;2023-04-25T14:50:01;22.30;39.20
31677;DHT22;18385;51.572;6.578;2023-04-25T14:52:27;22.80;38.80
31677;DHT22;18385;51.572;6.578;2023-04-25T14:54:53;23.10;37.90
31677;DHT22;18385;51.572;6.578;2023-04-25T14:57:18;23.20;37.40
31677;DHT22;18385;51.572;6.578;2023-04-25T14:59:44;23.40;36.60
31677;DHT22;18385;51.572;6.578;2023-04-25T15:02:11;23.70;36.60
31677;DHT22;18385;51.572;6.578;2023-04-25T15:04:37;23.90;36.20
31677;DHT22;18385;51.572;6.578;2023-04-25T15:07:02;24.10;34.70
31677;DHT22;18385;51.572;6.578;2023-04-25T15:09:29;23.80;34.20
31677;DHT22;18385;51.572;6.578;2023-04-25T15:11:56;24.00;35.10
31677;DHT22;18385;51.572;6.578;2023-04-25T15:14:21;24.50;33.70
31677;DHT22;18385;51.572;6.578;2023-04-25T15:16:47;23.50;32.50
31677;DHT22;18385;51.572;6.578;2023-04-25T15:19:13;21.70;32.80
31677;DHT22;18385;51.572;6.578;2023-04-25T15:21:39;20.10;34.20
31677;DHT22;18385;51.572;6.578;2023-04-25T15:24:05;19.00;35.90
31677;DHT22;18385;51.572;6.578;2023-04-25T15:26:30;18.20;36.70
31677;DHT22;18385;51.572;6.578;2023-04-25T15:28:56;17.50;37.30
31677;DHT22;18385;51.572;6.578;2023-04-25T15:31:22;17.00;37.80
31677;DHT22;18385;51.572;6.578;2023-04-25T15:33:47;16.70;38.40
31677;DHT22;18385;51.572;6.578;2023-04-25T15:36:13;16.50;38.60
31677;DHT22;18385;51.572;6.578;2023-04-25T15:38:41;16.40;39.20
31677;DHT22;18385;51.572;6.578;2023-04-25T15:41:07;17.20;40.00
31677;DHT22;18385;51.572;6.578;2023-04-25T15:43:33;17.20;38.40
31677;DHT22;18385;51.572;6.578;2023-04-25T15:46:02;16.90;38.00
31677;DHT22;18385;51.572;6.578;2023-04-25T15:48:28;16.60;38.50
31677;DHT22;18385;51.572;6.578;2023-04-25T15:50:54;16.20;38.70
31677;DHT22;18385;51.572;6.578;2023-04-25T15:53:20;16.00;38.90
31677;DHT22;18385;51.572;6.578;2023-04-25T15:55:46;15.70;39.30
31677;DHT22;18385;51.572;6.578;2023-04-25T15:58:12;15.60;39.60
31677;DHT22;18385;51.572;6.578;2023-04-25T16:00:37;15.60;39.40
31677;DHT22;18385;51.572;6.578;2023-04-25T16:03:04;15.40;39.30
31677;DHT22;18385;51.572;6.578;2023-04-25T16:05:30;15.40;39.60